Canyoncito, New Mexico
Current Conditions -  °F | °C
As of 7:53 AM on Friday 31 Oct 2014 (Local Time) from KSAF Reporting Station
Clear Clear  
Wind Chill: 41°   Ceiling: Unl
Heat Index: 46°   Visibility: 10mi
Dew Point: 23°   Wind: 12mph
Humidity: 40%   Direction: 120°ESE
Pressure: 30.41"   Gusts: NA
Location:  35.6111°N, 105.774°W
Report Text: KSAF 311353Z 12010KT 10SM CLR 08/M05 A3041 RMK AO2 SLP246 T00781050
Loading
Personal Weather Stations






























Interactive Weather Map
Tropical Storm Tracking
New forecast layout! Learn more

10-Day Weather Forecast

Advertisements
Track Severe Weather on mobile